Time;durP1;ratioP1;P1;durP2;ratioP2;P2;SDS_P1;SDS_P2;PMS_P1;PMS_P2;Temp;Humidity;BMP_temperature;BMP_pressure;BME280_temperature;BME280_humidity;BME280_pressure;Samples;Min_cycle;Max_cycle;Signal;HPM_P1;HPM_P2
2023/01/13 00:00:49;;;;;;;;;;;;;;;9.03;49.65;99940.03;4475787;32;35238;-67
2023/01/13 00:03:16;;;;;;;;;;;;;;;9.12;49.63;99935.88;4471336;32;34201;-68
2023/01/13 00:05:43;;;;;;;;;;;;;;;9.17;48.93;99925.75;4480842;32;31860;-67
2023/01/13 00:08:10;;;;;;;;;;;;;;;9.10;49.85;99933.31;4482701;32;34894;-68
2023/01/13 00:10:38;;;;;;;;;;;;;;;9.15;49.18;99931.22;4474686;31;35778;-72
2023/01/13 00:13:05;;;;;;;;;;;;;;;9.24;48.58;99922.56;4471574;31;34486;-67
2023/01/13 00:15:32;;;;;;;;;;;;;;;9.20;48.93;99930.91;4469684;32;33853;-68
2023/01/13 00:18:00;;;;;;;;;;;;;;;9.11;49.42;99929.69;4472276;32;33878;-70
2023/01/13 00:20:27;;;;;;;;;;;;;;;9.15;48.17;99935.66;4476493;32;34168;-71
2023/01/13 00:22:55;;;;;;;;;;;;;;;9.03;48.74;99927.53;4478467;32;35658;-67
2023/01/13 00:25:23;;;;;;;;;;;;;;;9.14;48.24;99925.97;4473056;32;34156;-69
2023/01/13 00:27:50;;;;;;;;;;;;;;;9.04;48.32;99929.22;4458584;32;34092;-69
2023/01/13 00:30:17;;;;;;;;;;;;;;;9.14;47.84;99923.28;4467204;31;34322;-70
2023/01/13 00:32:45;;;;;;;;;;;;;;;9.06;47.98;99921.12;4473121;32;34261;-65
2023/01/13 00:35:12;;;;;;;;;;;;;;;9.02;48.03;99920.47;4470377;32;33193;-64
2023/01/13 00:37:39;;;;;;;;;;;;;;;9.12;48.29;99925.19;4479703;32;34919;-64
2023/01/13 00:40:07;;;;;;;;;;;;;;;9.03;48.25;99926.66;4473556;32;33046;-64
2023/01/13 00:45:21;;;;;;;;;;;;;;;9.02;48.56;99932.94;4462419;32;34361;-66
2023/01/13 00:47:48;;;;;;;;;;;;;;;9.00;48.45;99925.06;4466848;32;34736;-65
2023/01/13 00:50:15;;;;;;;;;;;;;;;9.06;48.61;99930.00;4467149;31;35354;-64
2023/01/13 00:52:43;;;;;;;;;;;;;;;9.07;48.94;99921.00;4479145;32;32877;-65
2023/01/13 00:55:10;;;;;;;;;;;;;;;9.15;48.50;99917.84;4464786;32;31993;-65
2023/01/13 00:57:38;;;;;;;;;;;;;;;9.17;47.89;99923.94;4472694;32;34181;-65
2023/01/13 01:00:06;;;;;;;;;;;;;;;9.15;47.53;99923.19;4472904;31;35149;-66
2023/01/13 01:02:34;;;;;;;;;;;;;;;9.11;47.53;99916.31;4474015;31;34228;-65
2023/01/13 01:05:01;;;;;;;;;;;;;;;9.13;47.37;99921.59;4469159;32;33612;-65
2023/01/13 01:07:28;;;;;;;;;;;;;;;8.90;48.21;99913.28;4471191;32;34235;-65
2023/01/13 01:09:56;;;;;;;;;;;;;;;8.40;50.88;99914.69;4469339;32;33301;-65
2023/01/13 01:12:23;;;;;;;;;;;;;;;8.89;49.13;99911.53;4471888;31;34055;-66
2023/01/13 01:14:50;;;;;;;;;;;;;;;9.04;48.29;99902.53;4473794;32;32838;-65
2023/01/13 01:17:18;;;;;;;;;;;;;;;8.92;48.88;99906.00;4466226;32;35444;-64
2023/01/13 01:19:45;;;;;;;;;;;;;;;9.05;48.92;99904.25;4468815;32;32878;-68
2023/01/13 01:22:12;;;;;;;;;;;;;;;9.15;48.47;99898.28;4472624;32;33857;-64
2023/01/13 01:24:40;;;;;;;;;;;;;;;9.26;48.01;99901.13;4472728;32;34147;-66
2023/01/13 01:27:07;;;;;;;;;;;;;;;9.14;47.95;99901.94;4471545;32;32468;-65
2023/01/13 01:29:34;;;;;;;;;;;;;;;8.90;48.66;99894.59;4471299;32;33051;-64
2023/01/13 01:32:02;;;;;;;;;;;;;;;9.15;47.52;99896.50;4468278;32;34047;-65
2023/01/13 01:34:29;;;;;;;;;;;;;;;9.18;46.96;99896.28;4469059;32;34373;-65
2023/01/13 01:36:56;;;;;;;;;;;;;;;8.88;47.46;99899.16;4470603;32;33602;-64
2023/01/13 01:39:24;;;;;;;;;;;;;;;8.87;47.51;99889.44;4476857;32;33065;-65
2023/01/13 01:44:40;;;;;;;;;;;;;;;8.77;48.01;99877.66;4475332;32;31001;-64
2023/01/13 01:47:12;;;;;;;;;;;;;;;8.80;47.61;99878.31;4473928;32;33382;-66
2023/01/13 01:49:39;;;;;;;;;;;;;;;8.84;47.47;99879.81;4472736;32;34247;-66
2023/01/13 01:52:10;;;;;;;;;;;;;;;8.86;47.54;99880.59;4462297;32;34545;-66
2023/01/13 01:54:50;;;;;;;;;;;;;;;8.91;47.29;99879.41;4469371;32;35739;-63
2023/01/13 01:57:30;;;;;;;;;;;;;;;8.79;47.70;99878.41;4473360;31;33895;-65
2023/01/13 01:59:57;;;;;;;;;;;;;;;8.74;47.96;99876.03;4457344;32;33964;-69
2023/01/13 02:02:25;;;;;;;;;;;;;;;8.89;47.46;99874.16;4476787;32;35237;-66
2023/01/13 02:04:53;;;;;;;;;;;;;;;8.92;47.62;99868.62;4475102;32;33256;-66
2023/01/13 02:07:21;;;;;;;;;;;;;;;8.73;48.54;99870.78;4477125;32;35319;-66
2023/01/13 02:09:48;;;;;;;;;;;;;;;8.60;48.93;99862.72;4454133;32;35240;-67
2023/01/13 02:12:28;;;;;;;;;;;;;;;8.82;48.48;99865.69;4472409;32;36282;-66
2023/01/13 02:14:56;;;;;;;;;;;;;;;8.78;48.54;99858.00;4465791;32;34438;-67
2023/01/13 02:17:36;;;;;;;;;;;;;;;8.95;48.28;99864.91;4452649;32;33774;-69
2023/01/13 02:20:03;;;;;;;;;;;;;;;8.74;49.19;99851.19;4467197;32;34893;-66
2023/01/13 02:22:34;;;;;;;;;;;;;;;8.74;49.39;99856.50;4471329;32;35485;-66
2023/01/13 02:25:02;;;;;;;;;;;;;;;9.09;48.44;99863.03;4465941;32;33501;-66
2023/01/13 02:27:35;;;;;;;;;;;;;;;9.20;48.09;99851.63;4475660;32;34115;-67
2023/01/13 02:33:13;;;;;;;;;;;;;;;8.91;48.69;99850.06;4467186;32;33659;-68
2023/01/13 02:35:44;;;;;;;;;;;;;;;8.74;49.68;99846.69;4472779;32;33350;-66
2023/01/13 02:38:11;;;;;;;;;;;;;;;8.89;49.21;99854.63;4475398;32;35828;-66
2023/01/13 02:40:54;;;;;;;;;;;;;;;9.03;48.66;99855.44;4462124;32;34411;-66
2023/01/13 02:46:15;;;;;;;;;;;;;;;9.16;48.58;99852.81;4469703;32;32035;-66
2023/01/13 02:48:43;;;;;;;;;;;;;;;9.11;48.49;99844.22;4450890;32;35309;-66
2023/01/13 02:51:12;;;;;;;;;;;;;;;9.15;48.59;99848.44;4469752;32;34817;-66
2023/01/13 02:54:02;;;;;;;;;;;;;;;8.99;48.99;99839.69;4469472;32;35008;-67
2023/01/13 02:56:30;;;;;;;;;;;;;;;9.01;48.66;99835.97;4465031;31;33198;-66
2023/01/13 02:58:57;;;;;;;;;;;;;;;9.19;48.45;99835.72;4451995;32;33034;-69
2023/01/13 03:01:24;;;;;;;;;;;;;;;9.18;48.60;99832.19;4456733;32;35227;-69
2023/01/13 03:03:52;;;;;;;;;;;;;;;9.20;48.96;99838.28;4477877;32;33875;-69
2023/01/13 03:06:19;;;;;;;;;;;;;;;9.21;48.97;99837.34;4460535;32;32877;-70
2023/01/13 03:08:46;;;;;;;;;;;;;;;9.14;49.31;99827.16;4480382;32;32899;-69
2023/01/13 03:11:15;;;;;;;;;;;;;;;9.20;49.11;99835.59;4471667;32;33167;-69
2023/01/13 03:13:55;;;;;;;;;;;;;;;9.22;48.91;99824.84;4463911;32;34359;-70
2023/01/13 03:16:30;;;;;;;;;;;;;;;9.09;49.37;99824.81;4478650;32;32885;-68
2023/01/13 03:19:04;;;;;;;;;;;;;;;9.21;49.12;99817.75;4460153;32;33753;-69
2023/01/13 03:21:39;;;;;;;;;;;;;;;9.44;48.07;99824.22;4459426;32;34577;-68
2023/01/13 03:24:27;;;;;;;;;;;;;;;9.30;48.54;99822.47;4462333;32;35141;-70
2023/01/13 03:26:59;;;;;;;;;;;;;;;9.29;48.75;99823.44;4468125;32;32501;-69
2023/01/13 03:29:28;;;;;;;;;;;;;;;9.42;48.46;99826.13;4461127;32;35036;-69
2023/01/13 03:31:57;;;;;;;;;;;;;;;9.44;48.35;99814.41;4471622;32;33528;-68
2023/01/13 03:34:27;;;;;;;;;;;;;;;9.35;48.72;99809.69;4464466;32;35804;-69
2023/01/13 03:36:57;;;;;;;;;;;;;;;9.37;48.70;99813.09;4464155;32;33156;-68
2023/01/13 03:39:26;;;;;;;;;;;;;;;9.45;48.62;99805.41;4454988;32;33811;-68
2023/01/13 03:41:56;;;;;;;;;;;;;;;9.53;48.41;99803.06;4466239;32;34191;-69
2023/01/13 03:44:34;;;;;;;;;;;;;;;9.63;48.12;99807.75;4457056;32;34157;-69
2023/01/13 03:47:07;;;;;;;;;;;;;;;9.31;50.93;99805.50;4477226;32;34155;-68
2023/01/13 03:49:39;;;;;;;;;;;;;;;9.47;49.72;99811.50;4478076;31;34867;-69
2023/01/13 03:52:09;;;;;;;;;;;;;;;9.55;49.38;99808.28;4476343;32;34513;-68
2023/01/13 03:54:38;;;;;;;;;;;;;;;9.36;50.96;99807.84;4462222;32;32764;-69
2023/01/13 03:57:06;;;;;;;;;;;;;;;9.49;50.08;99808.72;4472747;32;33282;-68
2023/01/13 03:59:35;;;;;;;;;;;;;;;9.54;49.87;99809.25;4454767;32;34130;-69
2023/01/13 04:02:05;;;;;;;;;;;;;;;9.62;49.40;99809.56;4457847;32;33066;-68
2023/01/13 04:04:34;;;;;;;;;;;;;;;9.58;49.76;99816.09;4474466;32;34194;-71
2023/01/13 04:07:30;;;;;;;;;;;;;;;9.73;49.11;99809.69;4469102;32;34264;-70
2023/01/13 04:09:59;;;;;;;;;;;;;;;9.65;49.39;99806.69;4422110;32;33962;-67
2023/01/13 04:12:59;;;;;;;;;;;;;;;9.68;49.61;99813.62;4455917;32;34455;-69
2023/01/13 04:15:15;;;;;;;;;;;;;;;9.62;49.50;99809.56;4475089;32;35171;-68
2023/01/13 04:17:43;;;;;;;;;;;;;;;9.85;48.53;99807.94;4470480;32;32721;-71
2023/01/13 04:20:10;;;;;;;;;;;;;;;9.67;48.85;99810.13;4475537;32;35065;-71
2023/01/13 04:22:38;;;;;;;;;;;;;;;9.73;48.61;99819.53;4469531;32;33599;-69
2023/01/13 04:25:05;;;;;;;;;;;;;;;9.69;48.48;99812.66;4475149;32;34415;-72
2023/01/13 04:27:33;;;;;;;;;;;;;;;9.70;48.34;99820.59;4473855;32;33391;-69
2023/01/13 04:30:00;;;;;;;;;;;;;;;9.82;48.00;99818.00;4471754;32;34175;-70
2023/01/13 04:32:28;;;;;;;;;;;;;;;9.66;48.61;99821.78;4473591;32;34373;-70
2023/01/13 04:34:55;;;;;;;;;;;;;;;9.69;48.61;99818.00;4474268;32;34467;-70
2023/01/13 04:37:22;;;;;;;;;;;;;;;9.68;48.72;99816.31;4468347;32;33003;-70
2023/01/13 04:39:50;;;;;;;;;;;;;;;9.87;47.74;99821.22;4477047;31;34054;-70
2023/01/13 04:42:17;;;;;;;;;;;;;;;9.84;47.69;99826.78;4473959;32;34366;-70
2023/01/13 04:44:44;;;;;;;;;;;;;;;9.77;47.92;99826.37;4477146;32;33968;-69
2023/01/13 04:47:12;;;;;;;;;;;;;;;9.54;48.61;99817.28;4471763;32;33358;-69
2023/01/13 04:49:39;;;;;;;;;;;;;;;9.50;48.64;99816.66;4476386;31;32718;-70
2023/01/13 04:52:06;;;;;;;;;;;;;;;9.47;48.72;99819.53;4474125;32;31965;-69
2023/01/13 04:54:33;;;;;;;;;;;;;;;9.43;48.87;99815.34;4477218;32;35236;-67
2023/01/13 04:57:01;;;;;;;;;;;;;;;9.70;47.84;99819.75;4470277;31;35018;-70
2023/01/13 04:59:28;;;;;;;;;;;;;;;9.73;47.14;99816.84;4473381;32;35050;-72
2023/01/13 05:01:55;;;;;;;;;;;;;;;9.69;47.58;99815.34;4473201;32;35259;-70
2023/01/13 05:04:22;;;;;;;;;;;;;;;9.37;48.68;99818.41;4476596;32;34210;-69
2023/01/13 05:06:50;;;;;;;;;;;;;;;9.53;48.30;99824.44;4469252;32;32686;-69
2023/01/13 05:09:18;;;;;;;;;;;;;;;9.62;47.85;99822.94;4468431;31;33803;-70
2023/01/13 05:17:21;;;;;;;;;;;;;;;9.52;48.54;99827.22;4457056;32;33119;-68
2023/01/13 05:19:49;;;;;;;;;;;;;;;9.55;48.35;99829.66;4477236;32;32760;-70
2023/01/13 05:25:20;;;;;;;;;;;;;;;9.67;47.86;99839.50;4468946;32;34199;-67
2023/01/13 05:27:48;;;;;;;;;;;;;;;9.44;48.64;99838.44;4474923;31;34428;-68
2023/01/13 05:30:15;;;;;;;;;;;;;;;9.42;48.82;99843.03;4475360;32;33849;-67
2023/01/13 05:32:43;;;;;;;;;;;;;;;9.43;49.21;99850.06;4477946;32;34087;-68
2023/01/13 05:35:10;;;;;;;;;;;;;;;9.52;49.37;99854.78;4470402;31;34170;-68
2023/01/13 05:37:38;;;;;;;;;;;;;;;9.48;49.89;99847.09;4470817;32;33201;-66
2023/01/13 05:43:19;;;;;;;;;;;;;;;9.55;50.13;99843.88;4474248;32;34027;-70
2023/01/13 05:45:47;;;;;;;;;;;;;;;9.67;49.79;99844.84;4468909;32;34125;-68
2023/01/13 05:48:15;;;;;;;;;;;;;;;9.70;49.90;99841.13;4473062;32;34543;-69
2023/01/13 05:50:43;;;;;;;;;;;;;;;9.68;49.94;99840.37;4472962;32;34477;-67
2023/01/13 05:53:10;;;;;;;;;;;;;;;9.78;49.30;99844.09;4467937;32;35036;-67
2023/01/13 05:55:39;;;;;;;;;;;;;;;9.70;49.84;99841.97;4472900;31;34336;-67
2023/01/13 05:58:10;;;;;;;;;;;;;;;9.67;50.16;99841.34;4475230;32;34445;-67
2023/01/13 06:00:37;;;;;;;;;;;;;;;9.69;50.13;99837.56;4475883;32;32940;-66
2023/01/13 06:03:08;;;;;;;;;;;;;;;9.73;50.11;99832.91;4475864;32;34312;-67
2023/01/13 06:05:35;;;;;;;;;;;;;;;9.66;50.46;99837.81;4475199;32;33525;-67
2023/01/13 06:08:03;;;;;;;;;;;;;;;9.60;50.80;99832.00;4473051;32;32652;-68
2023/01/13 06:10:31;;;;;;;;;;;;;;;9.53;50.86;99834.25;4479048;32;34506;-67
2023/01/13 06:12:58;;;;;;;;;;;;;;;9.76;49.76;99835.34;4470179;31;34579;-67
2023/01/13 06:15:25;;;;;;;;;;;;;;;9.77;49.70;99845.06;4472330;32;33726;-68
2023/01/13 06:17:53;;;;;;;;;;;;;;;9.61;50.54;99839.09;4467452;32;36808;-67
2023/01/13 06:20:20;;;;;;;;;;;;;;;9.49;50.88;99841.63;4464844;32;34080;-68
2023/01/13 06:22:49;;;;;;;;;;;;;;;9.60;50.14;99837.34;4466798;31;35356;-67
2023/01/13 06:25:35;;;;;;;;;;;;;;;9.47;50.19;99840.03;4472394;32;34538;-67
2023/01/13 06:28:02;;;;;;;;;;;;;;;9.65;49.70;99843.25;4468138;32;33386;-66
2023/01/13 06:30:33;;;;;;;;;;;;;;;9.57;49.61;99833.09;4475862;32;33753;-66
2023/01/13 06:33:00;;;;;;;;;;;;;;;9.37;49.99;99842.47;4454130;31;34937;-69
2023/01/13 06:35:28;;;;;;;;;;;;;;;9.65;49.36;99836.09;4468011;32;34132;-66
2023/01/13 06:37:57;;;;;;;;;;;;;;;9.67;49.00;99846.69;4471633;32;32841;-67
2023/01/13 06:40:24;;;;;;;;;;;;;;;9.64;48.94;99845.06;4454263;32;34024;-67
2023/01/13 06:45:51;;;;;;;;;;;;;;;9.61;48.85;99845.28;4468901;32;34747;-67
2023/01/13 06:48:19;;;;;;;;;;;;;;;9.27;49.55;99852.91;4455256;32;34601;-67
2023/01/13 06:50:46;;;;;;;;;;;;;;;9.56;48.78;99850.94;4474590;31;35792;-71
2023/01/13 06:53:13;;;;;;;;;;;;;;;9.47;49.21;99858.72;4465848;32;33042;-68
2023/01/13 06:55:41;;;;;;;;;;;;;;;9.26;49.94;99863.72;4472905;31;34331;-68
2023/01/13 06:58:08;;;;;;;;;;;;;;;9.34;49.94;99872.06;4470311;32;34628;-68
2023/01/13 07:00:36;;;;;;;;;;;;;;;9.27;49.88;99863.59;4474704;32;34058;-68
2023/01/13 07:03:04;;;;;;;;;;;;;;;9.55;49.10;99867.06;4475191;32;35017;-71
2023/01/13 07:05:33;;;;;;;;;;;;;;;9.24;50.57;99866.47;4470668;31;33898;-70
2023/01/13 07:08:00;;;;;;;;;;;;;;;9.36;50.93;99875.50;4468427;32;33392;-71
2023/01/13 07:10:28;;;;;;;;;;;;;;;9.40;51.13;99870.78;4472274;32;33873;-67
2023/01/13 07:15:54;;;;;;;;;;;;;;;9.43;51.74;99867.91;4469789;32;35093;-67
2023/01/13 07:18:21;;;;;;;;;;;;;;;9.62;51.11;99860.34;4474189;32;32975;-70
2023/01/13 07:20:55;;;;;;;;;;;;;;;9.31;52.32;99867.81;4470298;32;34018;-69
2023/01/13 07:23:23;;;;;;;;;;;;;;;9.56;51.94;99858.09;4454008;32;34581;-68
2023/01/13 07:25:50;;;;;;;;;;;;;;;9.54;51.71;99858.22;4452748;32;34535;-67
2023/01/13 07:28:17;;;;;;;;;;;;;;;8.83;53.24;99862.09;4475161;32;33303;-67
2023/01/13 07:30:45;;;;;;;;;;;;;;;9.43;52.52;99859.91;4477739;32;33994;-67
2023/01/13 07:33:13;;;;;;;;;;;;;;;9.67;51.95;99857.38;4473085;32;33831;-67
2023/01/13 07:35:40;;;;;;;;;;;;;;;9.65;51.98;99859.28;4468323;32;34059;-67
2023/01/13 07:38:08;;;;;;;;;;;;;;;9.84;50.78;99859.72;4468112;32;32256;-69
2023/01/13 07:40:35;;;;;;;;;;;;;;;9.76;51.37;99862.94;4475903;32;33793;-67
2023/01/13 07:45:53;;;;;;;;;;;;;;;9.79;52.02;99864.50;4470877;32;34131;-69
2023/01/13 07:48:21;;;;;;;;;;;;;;;9.56;52.06;99866.09;4470039;32;33968;-67
2023/01/13 07:50:48;;;;;;;;;;;;;;;9.96;51.20;99868.72;4471619;31;32966;-67
2023/01/13 07:53:15;;;;;;;;;;;;;;;9.86;51.57;99863.16;4472982;32;34182;-69
2023/01/13 07:55:43;;;;;;;;;;;;;;;9.91;51.53;99877.03;4473260;32;34127;-69
2023/01/13 07:58:10;;;;;;;;;;;;;;;9.67;52.44;99879.59;4478855;32;34154;-69
2023/01/13 08:00:37;;;;;;;;;;;;;;;9.62;52.38;99881.72;4479828;31;34555;-69
2023/01/13 08:03:05;;;;;;;;;;;;;;;9.77;52.29;99887.84;4475677;32;35358;-69
2023/01/13 08:05:33;;;;;;;;;;;;;;;9.71;52.46;99894.47;4473218;32;33909;-70
2023/01/13 08:08:00;;;;;;;;;;;;;;;9.86;51.81;99889.88;4476777;32;33268;-70
2023/01/13 08:10:28;;;;;;;;;;;;;;;9.67;53.55;99889.44;4478912;32;34093;-69
2023/01/13 08:15:41;;;;;;;;;;;;;;;9.86;52.28;99895.22;4474973;32;33494;-69
2023/01/13 08:18:09;;;;;;;;;;;;;;;8.78;54.98;99892.72;4453767;32;33487;-69
2023/01/13 08:20:36;;;;;;;;;;;;;;;8.89;55.08;99898.19;4470640;32;34657;-69
2023/01/13 08:23:04;;;;;;;;;;;;;;;9.09;54.97;99895.09;4477520;31;34386;-68
2023/01/13 08:25:33;;;;;;;;;;;;;;;9.30;53.76;99894.59;4469897;32;34129;-69
2023/01/13 08:28:00;;;;;;;;;;;;;;;9.50;53.70;99896.81;4471519;32;33735;-69
2023/01/13 08:30:28;;;;;;;;;;;;;;;9.10;54.78;99904.78;4466662;31;34206;-69
2023/01/13 08:32:55;;;;;;;;;;;;;;;9.81;52.84;99908.03;4474339;31;34532;-69
2023/01/13 08:35:22;;;;;;;;;;;;;;;7.94;57.71;99905.03;4470588;32;32905;-69
2023/01/13 08:37:50;;;;;;;;;;;;;;;8.90;55.06;99905.25;4470436;32;33369;-68
2023/01/13 08:40:18;;;;;;;;;;;;;;;9.18;54.27;99914.09;4460837;32;35162;-71
2023/01/13 08:42:45;;;;;;;;;;;;;;;8.79;55.52;99910.41;4482216;32;34531;-71
2023/01/13 08:45:15;;;;;;;;;;;;;;;8.54;56.43;99905.78;4481194;32;34284;-67
2023/01/13 08:47:42;;;;;;;;;;;;;;;9.42;54.22;99909.81;4473764;32;33687;-69
2023/01/13 08:50:10;;;;;;;;;;;;;;;8.39;56.41;99921.84;4461394;32;34129;-69
2023/01/13 08:52:37;;;;;;;;;;;;;;;9.16;54.77;99924.06;4464552;32;34317;-69
2023/01/13 08:55:04;;;;;;;;;;;;;;;8.65;55.56;99927.34;4475953;32;34033;-68
2023/01/13 08:57:32;;;;;;;;;;;;;;;9.48;53.80;99928.09;4480412;32;33544;-70
2023/01/13 08:59:59;;;;;;;;;;;;;;;9.70;52.84;99940.03;4483962;32;32686;-69
2023/01/13 09:02:26;;;;;;;;;;;;;;;8.98;54.33;99929.62;4480370;32;34272;-68
2023/01/13 09:04:54;;;;;;;;;;;;;;;9.08;54.26;99928.09;4478240;32;33404;-67
2023/01/13 09:07:21;;;;;;;;;;;;;;;7.99;56.67;99947.41;4478918;32;33369;-68
2023/01/13 09:09:49;;;;;;;;;;;;;;;8.99;54.62;99934.03;4472812;32;32962;-67
2023/01/13 09:15:03;;;;;;;;;;;;;;;8.75;54.39;99924.94;4455873;32;805995;-67
2023/01/13 09:17:30;;;;;;;;;;;;;;;9.17;54.56;99920.41;4465868;32;32993;-67
2023/01/13 09:19:57;;;;;;;;;;;;;;;8.21;55.81;99911.44;4484042;32;34210;-67
2023/01/13 09:22:28;;;;;;;;;;;;;;;8.83;55.50;99914.63;4468923;32;33643;-67
2023/01/13 09:24:55;;;;;;;;;;;;;;;9.41;53.63;99913.44;4469714;32;33751;-69
2023/01/13 09:27:22;;;;;;;;;;;;;;;8.36;57.56;99921.12;4468275;32;34791;-67
2023/01/13 09:29:50;;;;;;;;;;;;;;;9.35;54.76;99919.19;4476767;32;34464;-67
2023/01/13 09:32:17;;;;;;;;;;;;;;;9.24;53.98;99924.37;4477500;32;35521;-71
2023/01/13 09:34:59;;;;;;;;;;;;;;;8.60;56.70;99924.97;4480825;32;34270;-70
2023/01/13 09:37:27;;;;;;;;;;;;;;;9.49;54.14;99908.44;4472092;32;33306;-72
2023/01/13 09:39:55;;;;;;;;;;;;;;;9.53;53.64;99915.28;4471625;32;33962;-70
2023/01/13 09:45:18;;;;;;;;;;;;;;;7.77;57.40;99907.91;4475105;32;34265;-68
2023/01/13 09:47:50;;;;;;;;;;;;;;;8.41;56.86;99900.41;4471898;32;33587;-67
2023/01/13 09:50:18;;;;;;;;;;;;;;;8.90;55.49;99902.59;4477816;32;33043;-68
2023/01/13 09:52:45;;;;;;;;;;;;;;;7.92;58.25;99896.28;4472471;32;34760;-70
2023/01/13 09:55:16;;;;;;;;;;;;;;;9.04;55.36;99896.34;4482690;32;33991;-67
2023/01/13 09:57:44;;;;;;;;;;;;;;;9.10;55.32;99898.59;4454810;32;33530;-68
2023/01/13 10:00:12;;;;;;;;;;;;;;;9.88;52.87;99895.09;4483302;32;35146;-70
2023/01/13 10:02:40;;;;;;;;;;;;;;;8.98;55.35;99900.25;4469471;31;34138;-68
2023/01/13 10:05:07;;;;;;;;;;;;;;;10.03;53.28;99897.56;4468550;32;34263;-67
2023/01/13 10:07:35;;;;;;;;;;;;;;;10.40;52.25;99891.44;4473140;32;31665;-68
2023/01/13 10:10:03;;;;;;;;;;;;;;;10.46;51.28;99891.03;4483739;32;34373;-68
2023/01/13 10:15:19;;;;;;;;;;;;;;;10.31;51.46;99901.00;4473391;32;34030;-67
2023/01/13 10:17:49;;;;;;;;;;;;;;;9.18;53.51;99906.09;4472443;32;33560;-69
2023/01/13 10:20:23;;;;;;;;;;;;;;;9.57;53.64;99902.59;4480398;32;34364;-68
2023/01/13 10:23:16;;;;;;;;;;;;;;;9.66;53.17;99903.75;4457060;32;34206;-68
2023/01/13 10:25:47;;;;;;;;;;;;;;;9.73;53.24;99905.06;4464544;32;33097;-67
2023/01/13 10:28:17;;;;;;;;;;;;;;;9.92;53.00;99908.19;4457357;32;33525;-68
2023/01/13 10:30:46;;;;;;;;;;;;;;;8.83;56.47;99911.97;4467261;32;34335;-69
2023/01/13 10:33:24;;;;;;;;;;;;;;;9.34;54.97;99898.75;4472830;32;34198;-68
2023/01/13 10:35:57;;;;;;;;;;;;;;;9.33;54.92;99887.22;4469811;31;35117;-68
2023/01/13 10:38:25;;;;;;;;;;;;;;;9.05;55.74;99892.69;4469228;32;32659;-69
2023/01/13 10:40:54;;;;;;;;;;;;;;;8.49;57.46;99890.09;4475109;32;35300;-67
2023/01/13 10:43:21;;;;;;;;;;;;;;;8.20;58.66;99886.56;4478682;32;35241;-68
2023/01/13 10:45:51;;;;;;;;;;;;;;;8.38;58.42;99876.59;4467415;32;34421;-69
2023/01/13 10:48:19;;;;;;;;;;;;;;;7.91;58.49;99872.41;4473728;32;33496;-68
2023/01/13 10:50:47;;;;;;;;;;;;;;;8.02;59.05;99866.41;4475603;32;34265;-68
2023/01/13 10:53:17;;;;;;;;;;;;;;;8.96;56.39;99874.66;4455064;32;34105;-69
2023/01/13 10:55:56;;;;;;;;;;;;;;;9.03;56.55;99868.78;4481590;32;34748;-68
2023/01/13 10:58:24;;;;;;;;;;;;;;;7.92;59.61;99860.78;4478506;32;33596;-67
2023/01/13 11:00:57;;;;;;;;;;;;;;;7.33;60.94;99866.13;4474734;32;35068;-67
2023/01/13 11:03:26;;;;;;;;;;;;;;;8.11;59.22;99848.00;4475562;32;34175;-67
2023/01/13 11:05:57;;;;;;;;;;;;;;;8.02;59.62;99855.72;4458169;32;34357;-67
2023/01/13 11:08:25;;;;;;;;;;;;;;;8.63;57.46;99849.19;4459651;32;34348;-67
2023/01/13 11:10:54;;;;;;;;;;;;;;;8.67;56.92;99842.72;4456195;32;34853;-67
2023/01/13 11:13:25;;;;;;;;;;;;;;;7.80;59.07;99841.09;4479895;32;34879;-69
2023/01/13 11:16:07;;;;;;;;;;;;;;;9.20;55.71;99834.75;4464324;32;35119;-69
2023/01/13 11:19:01;;;;;;;;;;;;;;;9.36;55.29;99839.91;4459144;32;34222;-69
2023/01/13 11:21:29;;;;;;;;;;;;;;;9.36;55.78;99823.88;4468496;32;32846;-68
2023/01/13 11:24:02;;;;;;;;;;;;;;;9.48;54.63;99823.03;4482887;32;35309;-66
2023/01/13 11:26:37;;;;;;;;;;;;;;;8.60;57.09;99817.37;4476238;32;34173;-68
2023/01/13 11:29:26;;;;;;;;;;;;;;;8.31;58.15;99817.41;4473276;32;33463;-67
2023/01/13 11:31:54;;;;;;;;;;;;;;;8.52;58.39;99811.69;4472591;32;34376;-68
2023/01/13 11:34:25;;;;;;;;;;;;;;;8.42;58.41;99814.09;4462716;32;33040;-68
2023/01/13 11:36:53;;;;;;;;;;;;;;;9.24;56.20;99821.06;4471999;32;33146;-68
2023/01/13 11:39:24;;;;;;;;;;;;;;;9.27;55.11;99822.69;4469277;32;33376;-69
2023/01/13 11:42:19;;;;;;;;;;;;;;;9.17;55.80;99821.59;4485259;32;34950;-67
2023/01/13 11:44:40;;;;;;;;;;;;;;;9.42;55.52;99818.13;4477912;32;34739;-68
2023/01/13 11:47:09;;;;;;;;;;;;;;;8.99;56.41;99819.22;4456895;32;34777;-67
2023/01/13 11:49:37;;;;;;;;;;;;;;;7.72;59.94;99806.06;4456224;32;33419;-68
2023/01/13 11:52:24;;;;;;;;;;;;;;;6.53;63.64;99806.91;4472590;32;34828;-68
2023/01/13 11:55:10;;;;;;;;;;;;;;;7.00;62.98;99805.09;4479713;32;33508;-67
2023/01/13 11:58:07;;;;;;;;;;;;;;;8.19;59.59;99782.72;4469382;32;33071;-67
2023/01/13 12:00:35;;;;;;;;;;;;;;;8.70;57.76;99790.94;4458741;31;36608;-66
2023/01/13 12:03:03;;;;;;;;;;;;;;;8.38;59.21;99784.09;4453425;32;33976;-66
2023/01/13 12:05:35;;;;;;;;;;;;;;;8.65;58.43;99777.91;4468782;32;33987;-66
2023/01/13 12:08:02;;;;;;;;;;;;;;;6.99;62.47;99766.13;4468575;32;34756;-67
2023/01/13 12:10:36;;;;;;;;;;;;;;;8.34;59.39;99769.22;4473051;32;34173;-67
2023/01/13 12:13:22;;;;;;;;;;;;;;;6.96;63.33;99760.97;4473967;32;34938;-67
2023/01/13 12:15:50;;;;;;;;;;;;;;;7.55;62.46;99750.31;4466790;31;34279;-70
2023/01/13 12:18:19;;;;;;;;;;;;;;;8.99;57.43;99749.81;4476327;31;34219;-70
2023/01/13 12:20:53;;;;;;;;;;;;;;;8.65;58.69;99750.37;4455870;32;33274;-66
2023/01/13 12:23:31;;;;;;;;;;;;;;;8.41;59.03;99745.72;4480121;32;34135;-69
2023/01/13 12:26:00;;;;;;;;;;;;;;;8.37;59.64;99734.34;4464739;32;34190;-70
2023/01/13 12:28:31;;;;;;;;;;;;;;;8.45;59.17;99730.38;4455728;32;33974;-71
2023/01/13 12:30:59;;;;;;;;;;;;;;;8.40;59.04;99746.66;4453740;32;33453;-72
2023/01/13 12:33:45;;;;;;;;;;;;;;;8.67;58.40;99748.44;4476754;32;33969;-71
2023/01/13 12:36:21;;;;;;;;;;;;;;;8.88;57.77;99746.16;4474780;32;35420;-68
2023/01/13 12:38:49;;;;;;;;;;;;;;;8.04;60.15;99740.06;4475191;31;34522;-66
2023/01/13 12:41:20;;;;;;;;;;;;;;;8.17;60.51;99743.66;4455772;32;34366;-68
2023/01/13 12:46:57;;;;;;;;;;;;;;;8.43;59.72;99734.94;4470964;32;34581;-69
2023/01/13 12:49:28;;;;;;;;;;;;;;;9.18;57.20;99737.84;4467823;32;34377;-71
2023/01/13 12:51:56;;;;;;;;;;;;;;;9.05;57.64;99737.84;4477357;32;33369;-67
2023/01/13 12:54:29;;;;;;;;;;;;;;;8.02;61.37;99736.63;4477314;32;33374;-68
2023/01/13 12:56:57;;;;;;;;;;;;;;;7.18;62.77;99740.09;4472015;32;34118;-67
2023/01/13 12:59:24;;;;;;;;;;;;;;;7.18;64.72;99728.59;4456705;32;34224;-67
2023/01/13 13:02:11;;;;;;;;;;;;;;;6.96;65.69;99727.25;4473005;32;33228;-71
2023/01/13 13:04:42;;;;;;;;;;;;;;;7.90;62.51;99724.97;4474612;32;33987;-71
2023/01/13 13:07:12;;;;;;;;;;;;;;;8.72;59.34;99733.00;4476716;32;36665;-68
2023/01/13 13:09:43;;;;;;;;;;;;;;;7.40;63.78;99731.66;4458790;32;35747;-68
2023/01/13 13:15:25;;;;;;;;;;;;;;;6.58;66.29;99745.50;4476499;32;34222;-67
2023/01/13 13:18:02;;;;;;;;;;;;;;;7.09;64.50;99738.00;4480929;32;34167;-68
2023/01/13 13:20:49;;;;;;;;;;;;;;;8.02;62.33;99736.63;4474570;32;34291;-70
2023/01/13 13:23:34;;;;;;;;;;;;;;;6.89;65.81;99741.00;4474390;32;33249;-68
2023/01/13 13:26:15;;;;;;;;;;;;;;;6.52;67.17;99736.06;4461275;32;33290;-67
2023/01/13 13:29:03;;;;;;;;;;;;;;;6.86;66.91;99727.88;4472240;32;34015;-67
2023/01/13 13:31:30;;;;;;;;;;;;;;;7.42;64.44;99726.25;4474971;32;35315;-68
2023/01/13 13:34:12;;;;;;;;;;;;;;;7.23;65.18;99743.34;4479560;32;34570;-67
2023/01/13 13:36:44;;;;;;;;;;;;;;;7.99;62.51;99744.81;4471730;32;33430;-70
2023/01/13 13:47:45;;;;;;;;;;;;;;;8.05;63.02;99757.75;4464660;32;33450;-67
2023/01/13 13:50:14;;;;;;;;;;;;;;;8.45;61.67;99768.56;4471051;32;37736;-69
2023/01/13 13:52:42;;;;;;;;;;;;;;;8.82;60.90;99772.28;4471134;32;33623;-69
2023/01/13 13:55:17;;;;;;;;;;;;;;;8.78;60.57;99777.94;4455027;32;33615;-72
2023/01/13 13:57:46;;;;;;;;;;;;;;;9.32;58.77;99781.34;4470530;32;35007;-69
2023/01/13 14:00:14;;;;;;;;;;;;;;;9.32;58.97;99775.16;4475569;32;33718;-70
2023/01/13 14:02:45;;;;;;;;;;;;;;;9.62;57.50;99782.00;4470564;32;33976;-71
2023/01/13 14:05:17;;;;;;;;;;;;;;;8.43;60.89;99770.47;4468937;32;33510;-68
2023/01/13 14:07:46;;;;;;;;;;;;;;;9.05;59.81;99780.56;4465849;31;34536;-72
2023/01/13 14:10:15;;;;;;;;;;;;;;;9.52;58.29;99779.13;4467294;31;33872;-67